sensor_id;sensor_type;location;lat;lon;timestamp;P1;durP1;ratioP1;P2;durP2;ratioP2
9767;SDS011;4923;52.520;13.494;2022-08-20T00:02:24;23.30;;;19.90;;
9767;SDS011;4923;52.520;13.494;2022-08-20T00:05:12;22.13;;;19.27;;
9767;SDS011;4923;52.520;13.494;2022-08-20T00:07:59;28.30;;;19.73;;
9767;SDS011;4923;52.520;13.494;2022-08-20T00:10:50;25.57;;;19.73;;
9767;SDS011;4923;52.520;13.494;2022-08-20T00:13:41;33.43;;;19.60;;
9767;SDS011;4923;52.520;13.494;2022-08-20T00:16:32;22.13;;;19.07;;
9767;SDS011;4923;52.520;13.494;2022-08-20T00:19:20;24.73;;;20.57;;
9767;SDS011;4923;52.520;13.494;2022-08-20T00:22:07;26.67;;;22.00;;
9767;SDS011;4923;52.520;13.494;2022-08-20T00:24:54;29.57;;;20.97;;
9767;SDS011;4923;52.520;13.494;2022-08-20T00:27:43;28.33;;;21.50;;
9767;SDS011;4923;52.520;13.494;2022-08-20T00:30:30;24.23;;;19.83;;
9767;SDS011;4923;52.520;13.494;2022-08-20T00:33:19;26.27;;;21.17;;
9767;SDS011;4923;52.520;13.494;2022-08-20T00:36:08;28.00;;;20.40;;
9767;SDS011;4923;52.520;13.494;2022-08-20T00:38:56;25.50;;;21.67;;
9767;SDS011;4923;52.520;13.494;2022-08-20T00:41:43;29.03;;;21.83;;
9767;SDS011;4923;52.520;13.494;2022-08-20T00:44:31;28.63;;;21.83;;
9767;SDS011;4923;52.520;13.494;2022-08-20T00:47:19;27.77;;;21.37;;
9767;SDS011;4923;52.520;13.494;2022-08-20T00:50:06;28.90;;;23.03;;
9767;SDS011;4923;52.520;13.494;2022-08-20T00:52:54;25.87;;;20.20;;
9767;SDS011;4923;52.520;13.494;2022-08-20T00:55:42;27.60;;;22.17;;
9767;SDS011;4923;52.520;13.494;2022-08-20T00:58:29;24.27;;;19.20;;
9767;SDS011;4923;52.520;13.494;2022-08-20T01:01:18;25.17;;;21.57;;
9767;SDS011;4923;52.520;13.494;2022-08-20T01:04:07;30.00;;;21.43;;
9767;SDS011;4923;52.520;13.494;2022-08-20T01:06:55;26.03;;;20.73;;
9767;SDS011;4923;52.520;13.494;2022-08-20T01:09:42;30.00;;;22.47;;
9767;SDS011;4923;52.520;13.494;2022-08-20T01:12:30;30.00;;;22.17;;
9767;SDS011;4923;52.520;13.494;2022-08-20T01:15:18;28.43;;;22.07;;
9767;SDS011;4923;52.520;13.494;2022-08-20T01:18:10;31.97;;;23.60;;
9767;SDS011;4923;52.520;13.494;2022-08-20T01:21:00;29.63;;;21.67;;
9767;SDS011;4923;52.520;13.494;2022-08-20T01:23:51;33.23;;;22.77;;
9767;SDS011;4923;52.520;13.494;2022-08-20T01:26:43;32.93;;;23.90;;
9767;SDS011;4923;52.520;13.494;2022-08-20T01:29:33;36.20;;;23.87;;
9767;SDS011;4923;52.520;13.494;2022-08-20T01:32:24;30.13;;;24.10;;
9767;SDS011;4923;52.520;13.494;2022-08-20T01:35:11;31.10;;;22.97;;
9767;SDS011;4923;52.520;13.494;2022-08-20T01:37:58;25.17;;;20.43;;
9767;SDS011;4923;52.520;13.494;2022-08-20T01:40:49;27.93;;;22.37;;
9767;SDS011;4923;52.520;13.494;2022-08-20T01:43:50;30.87;;;22.73;;
9767;SDS011;4923;52.520;13.494;2022-08-20T01:46:42;32.23;;;22.80;;
9767;SDS011;4923;52.520;13.494;2022-08-20T01:49:31;32.80;;;21.97;;
9767;SDS011;4923;52.520;13.494;2022-08-20T01:52:21;26.97;;;21.30;;
9767;SDS011;4923;52.520;13.494;2022-08-20T01:55:13;32.30;;;22.37;;
9767;SDS011;4923;52.520;13.494;2022-08-20T01:58:01;27.87;;;21.30;;
9767;SDS011;4923;52.520;13.494;2022-08-20T02:00:50;28.80;;;22.13;;
9767;SDS011;4923;52.520;13.494;2022-08-20T02:03:38;26.87;;;21.10;;
9767;SDS011;4923;52.520;13.494;2022-08-20T02:06:28;22.10;;;19.13;;
9767;SDS011;4923;52.520;13.494;2022-08-20T02:09:18;26.13;;;20.23;;
9767;SDS011;4923;52.520;13.494;2022-08-20T02:12:06;23.33;;;18.70;;
9767;SDS011;4923;52.520;13.494;2022-08-20T02:14:53;20.90;;;17.40;;
9767;SDS011;4923;52.520;13.494;2022-08-20T02:17:42;19.57;;;17.37;;
9767;SDS011;4923;52.520;13.494;2022-08-20T02:20:29;20.07;;;17.67;;
9767;SDS011;4923;52.520;13.494;2022-08-20T02:23:17;22.70;;;17.73;;
9767;SDS011;4923;52.520;13.494;2022-08-20T02:26:04;22.50;;;17.43;;
9767;SDS011;4923;52.520;13.494;2022-08-20T02:28:52;19.53;;;16.40;;
9767;SDS011;4923;52.520;13.494;2022-08-20T02:31:40;19.90;;;17.70;;
9767;SDS011;4923;52.520;13.494;2022-08-20T02:34:31;13.30;;;12.00;;
9767;SDS011;4923;52.520;13.494;2022-08-20T02:37:19;13.10;;;11.70;;
9767;SDS011;4923;52.520;13.494;2022-08-20T02:40:07;13.50;;;12.07;;
9767;SDS011;4923;52.520;13.494;2022-08-20T02:42:57;13.40;;;12.10;;
9767;SDS011;4923;52.520;13.494;2022-08-20T02:45:45;12.97;;;11.80;;
9767;SDS011;4923;52.520;13.494;2022-08-20T02:48:33;12.40;;;11.10;;
9767;SDS011;4923;52.520;13.494;2022-08-20T02:51:21;12.83;;;11.40;;
9767;SDS011;4923;52.520;13.494;2022-08-20T02:54:08;13.53;;;12.33;;
9767;SDS011;4923;52.520;13.494;2022-08-20T02:56:55;18.07;;;16.17;;
9767;SDS011;4923;52.520;13.494;2022-08-20T02:59:42;17.47;;;15.53;;
9767;SDS011;4923;52.520;13.494;2022-08-20T03:02:29;17.33;;;15.47;;
9767;SDS011;4923;52.520;13.494;2022-08-20T03:05:16;19.17;;;16.40;;
9767;SDS011;4923;52.520;13.494;2022-08-20T03:08:05;17.87;;;16.00;;
9767;SDS011;4923;52.520;13.494;2022-08-20T03:10:54;17.57;;;15.43;;
9767;SDS011;4923;52.520;13.494;2022-08-20T03:13:41;19.43;;;16.00;;
9767;SDS011;4923;52.520;13.494;2022-08-20T03:16:28;19.43;;;16.90;;
9767;SDS011;4923;52.520;13.494;2022-08-20T03:19:15;22.30;;;18.07;;
9767;SDS011;4923;52.520;13.494;2022-08-20T03:22:02;20.77;;;17.30;;
9767;SDS011;4923;52.520;13.494;2022-08-20T03:24:50;25.50;;;19.37;;
9767;SDS011;4923;52.520;13.494;2022-08-20T03:27:37;23.00;;;18.00;;
9767;SDS011;4923;52.520;13.494;2022-08-20T03:30:25;26.13;;;18.83;;
9767;SDS011;4923;52.520;13.494;2022-08-20T03:33:13;23.50;;;18.20;;
9767;SDS011;4923;52.520;13.494;2022-08-20T03:36:01;20.80;;;17.90;;
9767;SDS011;4923;52.520;13.494;2022-08-20T03:38:50;21.17;;;17.20;;
9767;SDS011;4923;52.520;13.494;2022-08-20T03:41:38;25.50;;;18.50;;
9767;SDS011;4923;52.520;13.494;2022-08-20T03:44:25;28.33;;;20.20;;
9767;SDS011;4923;52.520;13.494;2022-08-20T03:47:12;24.47;;;19.83;;
9767;SDS011;4923;52.520;13.494;2022-08-20T03:49:59;25.53;;;19.57;;
9767;SDS011;4923;52.520;13.494;2022-08-20T03:52:48;27.27;;;20.30;;
9767;SDS011;4923;52.520;13.494;2022-08-20T03:55:35;33.87;;;22.40;;
9767;SDS011;4923;52.520;13.494;2022-08-20T03:58:23;29.70;;;22.10;;
9767;SDS011;4923;52.520;13.494;2022-08-20T04:01:10;31.77;;;23.57;;
9767;SDS011;4923;52.520;13.494;2022-08-20T04:03:57;30.77;;;21.57;;
9767;SDS011;4923;52.520;13.494;2022-08-20T04:06:44;31.60;;;23.03;;
9767;SDS011;4923;52.520;13.494;2022-08-20T04:09:31;32.47;;;23.90;;
9767;SDS011;4923;52.520;13.494;2022-08-20T04:12:18;33.67;;;24.63;;
9767;SDS011;4923;52.520;13.494;2022-08-20T04:15:09;31.13;;;23.30;;
9767;SDS011;4923;52.520;13.494;2022-08-20T04:17:58;34.33;;;24.43;;
9767;SDS011;4923;52.520;13.494;2022-08-20T04:20:47;36.43;;;23.30;;
9767;SDS011;4923;52.520;13.494;2022-08-20T04:23:34;29.80;;;23.77;;
9767;SDS011;4923;52.520;13.494;2022-08-20T04:26:20;31.37;;;22.83;;
9767;SDS011;4923;52.520;13.494;2022-08-20T04:29:07;30.83;;;23.07;;
9767;SDS011;4923;52.520;13.494;2022-08-20T04:31:56;32.93;;;23.07;;
9767;SDS011;4923;52.520;13.494;2022-08-20T04:34:43;30.47;;;23.43;;
9767;SDS011;4923;52.520;13.494;2022-08-20T04:37:30;29.27;;;22.50;;
9767;SDS011;4923;52.520;13.494;2022-08-20T04:40:17;32.60;;;21.73;;
9767;SDS011;4923;52.520;13.494;2022-08-20T04:43:22;31.20;;;21.90;;
9767;SDS011;4923;52.520;13.494;2022-08-20T04:46:11;32.13;;;23.30;;
9767;SDS011;4923;52.520;13.494;2022-08-20T04:48:59;28.80;;;22.37;;
9767;SDS011;4923;52.520;13.494;2022-08-20T04:51:47;26.97;;;21.57;;
9767;SDS011;4923;52.520;13.494;2022-08-20T04:54:33;30.50;;;22.13;;
9767;SDS011;4923;52.520;13.494;2022-08-20T04:57:20;27.63;;;21.80;;
9767;SDS011;4923;52.520;13.494;2022-08-20T05:00:09;26.90;;;21.43;;
9767;SDS011;4923;52.520;13.494;2022-08-20T05:03:00;30.30;;;22.93;;
9767;SDS011;4923;52.520;13.494;2022-08-20T05:05:48;27.37;;;21.77;;
9767;SDS011;4923;52.520;13.494;2022-08-20T05:08:36;29.07;;;23.20;;
9767;SDS011;4923;52.520;13.494;2022-08-20T05:11:24;29.90;;;20.90;;
9767;SDS011;4923;52.520;13.494;2022-08-20T05:14:11;31.10;;;22.97;;
9767;SDS011;4923;52.520;13.494;2022-08-20T05:17:00;29.07;;;21.30;;
9767;SDS011;4923;52.520;13.494;2022-08-20T05:19:50;25.60;;;20.10;;
9767;SDS011;4923;52.520;13.494;2022-08-20T05:22:39;31.17;;;22.30;;
9767;SDS011;4923;52.520;13.494;2022-08-20T05:25:26;25.47;;;22.53;;
9767;SDS011;4923;52.520;13.494;2022-08-20T05:28:15;28.43;;;23.47;;
9767;SDS011;4923;52.520;13.494;2022-08-20T05:31:04;24.63;;;20.60;;
9767;SDS011;4923;52.520;13.494;2022-08-20T05:33:53;27.67;;;22.00;;
9767;SDS011;4923;52.520;13.494;2022-08-20T05:36:42;27.33;;;21.30;;
9767;SDS011;4923;52.520;13.494;2022-08-20T05:39:32;26.47;;;21.10;;
9767;SDS011;4923;52.520;13.494;2022-08-20T05:42:19;24.87;;;20.30;;
9767;SDS011;4923;52.520;13.494;2022-08-20T05:45:11;25.60;;;21.30;;
9767;SDS011;4923;52.520;13.494;2022-08-20T05:48:02;23.70;;;19.50;;
9767;SDS011;4923;52.520;13.494;2022-08-20T05:50:51;22.87;;;19.23;;
9767;SDS011;4923;52.520;13.494;2022-08-20T05:53:39;23.53;;;19.97;;
9767;SDS011;4923;52.520;13.494;2022-08-20T05:56:28;24.87;;;19.00;;
9767;SDS011;4923;52.520;13.494;2022-08-20T05:59:18;24.27;;;20.47;;
9767;SDS011;4923;52.520;13.494;2022-08-20T06:02:07;21.40;;;19.10;;
9767;SDS011;4923;52.520;13.494;2022-08-20T06:05:14;24.13;;;19.70;;
9767;SDS011;4923;52.520;13.494;2022-08-20T06:08:02;22.43;;;19.53;;
9767;SDS011;4923;52.520;13.494;2022-08-20T06:10:50;25.20;;;19.10;;
9767;SDS011;4923;52.520;13.494;2022-08-20T06:13:38;21.77;;;19.40;;
9767;SDS011;4923;52.520;13.494;2022-08-20T06:16:25;21.73;;;18.70;;
9767;SDS011;4923;52.520;13.494;2022-08-20T06:19:12;21.30;;;19.13;;
9767;SDS011;4923;52.520;13.494;2022-08-20T06:22:02;24.13;;;19.97;;
9767;SDS011;4923;52.520;13.494;2022-08-20T06:24:51;22.70;;;19.00;;
9767;SDS011;4923;52.520;13.494;2022-08-20T06:27:38;23.30;;;19.77;;
9767;SDS011;4923;52.520;13.494;2022-08-20T06:30:28;25.20;;;20.27;;
9767;SDS011;4923;52.520;13.494;2022-08-20T06:33:16;20.20;;;18.10;;
9767;SDS011;4923;52.520;13.494;2022-08-20T06:36:03;20.87;;;18.63;;
9767;SDS011;4923;52.520;13.494;2022-08-20T06:38:51;21.20;;;18.90;;
9767;SDS011;4923;52.520;13.494;2022-08-20T06:41:39;22.37;;;19.97;;
9767;SDS011;4923;52.520;13.494;2022-08-20T06:44:26;21.20;;;17.83;;
9767;SDS011;4923;52.520;13.494;2022-08-20T06:47:14;27.23;;;20.33;;
9767;SDS011;4923;52.520;13.494;2022-08-20T06:50:02;22.30;;;19.90;;
9767;SDS011;4923;52.520;13.494;2022-08-20T06:52:53;22.00;;;19.80;;
9767;SDS011;4923;52.520;13.494;2022-08-20T06:55:42;23.30;;;19.50;;
9767;SDS011;4923;52.520;13.494;2022-08-20T06:58:33;22.23;;;19.83;;
9767;SDS011;4923;52.520;13.494;2022-08-20T07:01:22;29.07;;;20.50;;
9767;SDS011;4923;52.520;13.494;2022-08-20T07:04:11;29.10;;;21.80;;
9767;SDS011;4923;52.520;13.494;2022-08-20T07:07:00;31.70;;;21.47;;
9767;SDS011;4923;52.520;13.494;2022-08-20T07:09:47;28.13;;;21.30;;
9767;SDS011;4923;52.520;13.494;2022-08-20T07:12:34;30.90;;;22.10;;
9767;SDS011;4923;52.520;13.494;2022-08-20T07:15:22;28.10;;;21.87;;
9767;SDS011;4923;52.520;13.494;2022-08-20T07:18:10;26.73;;;21.10;;
9767;SDS011;4923;52.520;13.494;2022-08-20T07:20:59;23.10;;;20.63;;
9767;SDS011;4923;52.520;13.494;2022-08-20T07:23:47;25.90;;;19.70;;
9767;SDS011;4923;52.520;13.494;2022-08-20T07:26:34;27.70;;;21.80;;
9767;SDS011;4923;52.520;13.494;2022-08-20T07:29:21;27.43;;;20.80;;
9767;SDS011;4923;52.520;13.494;2022-08-20T07:32:27;27.00;;;21.83;;
9767;SDS011;4923;52.520;13.494;2022-08-20T07:35:21;25.03;;;20.70;;
9767;SDS011;4923;52.520;13.494;2022-08-20T07:38:14;29.17;;;22.63;;
9767;SDS011;4923;52.520;13.494;2022-08-20T07:41:09;29.23;;;22.97;;
9767;SDS011;4923;52.520;13.494;2022-08-20T07:43:57;28.60;;;22.27;;
9767;SDS011;4923;52.520;13.494;2022-08-20T07:46:44;31.90;;;24.20;;
9767;SDS011;4923;52.520;13.494;2022-08-20T07:49:31;32.47;;;24.10;;
9767;SDS011;4923;52.520;13.494;2022-08-20T07:52:22;28.63;;;24.10;;
9767;SDS011;4923;52.520;13.494;2022-08-20T07:55:11;36.37;;;25.47;;
9767;SDS011;4923;52.520;13.494;2022-08-20T07:58:04;33.70;;;23.63;;
9767;SDS011;4923;52.520;13.494;2022-08-20T08:00:55;34.33;;;24.80;;
9767;SDS011;4923;52.520;13.494;2022-08-20T08:03:42;31.33;;;25.03;;
9767;SDS011;4923;52.520;13.494;2022-08-20T08:06:30;30.80;;;24.40;;
9767;SDS011;4923;52.520;13.494;2022-08-20T08:09:17;38.83;;;27.13;;
9767;SDS011;4923;52.520;13.494;2022-08-20T08:12:06;35.23;;;25.90;;
9767;SDS011;4923;52.520;13.494;2022-08-20T08:14:53;33.53;;;26.37;;
9767;SDS011;4923;52.520;13.494;2022-08-20T08:17:40;35.50;;;24.70;;
9767;SDS011;4923;52.520;13.494;2022-08-20T08:20:28;45.97;;;27.23;;
9767;SDS011;4923;52.520;13.494;2022-08-20T08:23:15;30.17;;;24.33;;
9767;SDS011;4923;52.520;13.494;2022-08-20T08:26:02;35.53;;;26.23;;
9767;SDS011;4923;52.520;13.494;2022-08-20T08:28:51;37.57;;;26.50;;
9767;SDS011;4923;52.520;13.494;2022-08-20T08:31:38;34.83;;;25.27;;
9767;SDS011;4923;52.520;13.494;2022-08-20T08:34:26;40.30;;;27.27;;
9767;SDS011;4923;52.520;13.494;2022-08-20T08:37:14;36.13;;;26.60;;
9767;SDS011;4923;52.520;13.494;2022-08-20T08:40:01;35.07;;;26.63;;
9767;SDS011;4923;52.520;13.494;2022-08-20T08:42:51;31.40;;;25.73;;
9767;SDS011;4923;52.520;13.494;2022-08-20T08:45:44;35.97;;;26.77;;
9767;SDS011;4923;52.520;13.494;2022-08-20T08:48:34;40.40;;;27.10;;
9767;SDS011;4923;52.520;13.494;2022-08-20T08:51:25;37.33;;;24.07;;
9767;SDS011;4923;52.520;13.494;2022-08-20T08:54:20;36.57;;;24.93;;
9767;SDS011;4923;52.520;13.494;2022-08-20T08:57:10;34.27;;;25.60;;
9767;SDS011;4923;52.520;13.494;2022-08-20T08:59:58;49.73;;;26.17;;
9767;SDS011;4923;52.520;13.494;2022-08-20T09:02:55;32.67;;;26.37;;
9767;SDS011;4923;52.520;13.494;2022-08-20T09:05:45;30.03;;;24.87;;
9767;SDS011;4923;52.520;13.494;2022-08-20T09:08:37;32.10;;;24.97;;
9767;SDS011;4923;52.520;13.494;2022-08-20T09:11:29;38.47;;;26.03;;
9767;SDS011;4923;52.520;13.494;2022-08-20T09:14:16;36.70;;;23.90;;
9767;SDS011;4923;52.520;13.494;2022-08-20T09:17:03;29.37;;;22.23;;
9767;SDS011;4923;52.520;13.494;2022-08-20T09:19:52;36.87;;;26.07;;
9767;SDS011;4923;52.520;13.494;2022-08-20T09:22:39;32.37;;;25.40;;
9767;SDS011;4923;52.520;13.494;2022-08-20T09:25:26;31.40;;;24.77;;
9767;SDS011;4923;52.520;13.494;2022-08-20T09:28:13;27.40;;;23.50;;
9767;SDS011;4923;52.520;13.494;2022-08-20T09:31:00;35.90;;;24.30;;
9767;SDS011;4923;52.520;13.494;2022-08-20T09:33:47;38.63;;;23.13;;
9767;SDS011;4923;52.520;13.494;2022-08-20T09:36:35;33.63;;;25.67;;
9767;SDS011;4923;52.520;13.494;2022-08-20T09:39:22;30.87;;;22.60;;
9767;SDS011;4923;52.520;13.494;2022-08-20T09:42:10;31.87;;;24.43;;
9767;SDS011;4923;52.520;13.494;2022-08-20T09:44:59;28.60;;;22.70;;
9767;SDS011;4923;52.520;13.494;2022-08-20T09:47:46;29.57;;;24.80;;
9767;SDS011;4923;52.520;13.494;2022-08-20T09:50:34;27.67;;;21.90;;
9767;SDS011;4923;52.520;13.494;2022-08-20T09:53:23;28.53;;;22.27;;
9767;SDS011;4923;52.520;13.494;2022-08-20T09:56:10;24.63;;;20.30;;
9767;SDS011;4923;52.520;13.494;2022-08-20T09:58:57;29.50;;;23.37;;
9767;SDS011;4923;52.520;13.494;2022-08-20T10:01:45;29.53;;;23.00;;
9767;SDS011;4923;52.520;13.494;2022-08-20T10:04:33;32.83;;;24.53;;
9767;SDS011;4923;52.520;13.494;2022-08-20T10:07:20;32.40;;;24.13;;
9767;SDS011;4923;52.520;13.494;2022-08-20T10:10:10;30.50;;;24.93;;
9767;SDS011;4923;52.520;13.494;2022-08-20T10:12:59;32.87;;;25.63;;
9767;SDS011;4923;52.520;13.494;2022-08-20T10:15:46;29.23;;;24.40;;
9767;SDS011;4923;52.520;13.494;2022-08-20T10:18:34;30.23;;;23.47;;
9767;SDS011;4923;52.520;13.494;2022-08-20T10:21:21;29.97;;;23.03;;
9767;SDS011;4923;52.520;13.494;2022-08-20T10:24:08;38.33;;;23.73;;
9767;SDS011;4923;52.520;13.494;2022-08-20T10:26:57;32.80;;;22.70;;
9767;SDS011;4923;52.520;13.494;2022-08-20T10:29:45;28.10;;;22.80;;
9767;SDS011;4923;52.520;13.494;2022-08-20T10:32:32;27.80;;;21.80;;
9767;SDS011;4923;52.520;13.494;2022-08-20T10:35:19;29.43;;;21.63;;
9767;SDS011;4923;52.520;13.494;2022-08-20T10:38:06;23.83;;;19.20;;
9767;SDS011;4923;52.520;13.494;2022-08-20T10:40:54;35.50;;;20.27;;
9767;SDS011;4923;52.520;13.494;2022-08-20T10:43:42;22.03;;;19.00;;
9767;SDS011;4923;52.520;13.494;2022-08-20T10:46:30;21.93;;;18.50;;
9767;SDS011;4923;52.520;13.494;2022-08-20T10:49:17;19.07;;;16.97;;
9767;SDS011;4923;52.520;13.494;2022-08-20T10:52:04;18.97;;;16.70;;
9767;SDS011;4923;52.520;13.494;2022-08-20T10:54:51;17.40;;;15.60;;
9767;SDS011;4923;52.520;13.494;2022-08-20T10:57:39;14.03;;;12.57;;
9767;SDS011;4923;52.520;13.494;2022-08-20T11:00:28;15.80;;;12.67;;
9767;SDS011;4923;52.520;13.494;2022-08-20T11:03:15;16.00;;;11.93;;
9767;SDS011;4923;52.520;13.494;2022-08-20T11:06:02;12.97;;;11.67;;
9767;SDS011;4923;52.520;13.494;2022-08-20T11:08:49;13.80;;;10.57;;
9767;SDS011;4923;52.520;13.494;2022-08-20T11:11:36;10.03;;;9.10;;
9767;SDS011;4923;52.520;13.494;2022-08-20T11:14:23;9.67;;;8.70;;
9767;SDS011;4923;52.520;13.494;2022-08-20T11:17:12;10.20;;;8.20;;
9767;SDS011;4923;52.520;13.494;2022-08-20T11:20:04;8.27;;;7.57;;
9767;SDS011;4923;52.520;13.494;2022-08-20T11:22:52;12.43;;;9.10;;
9767;SDS011;4923;52.520;13.494;2022-08-20T11:25:40;9.10;;;8.30;;
9767;SDS011;4923;52.520;13.494;2022-08-20T11:28:29;11.20;;;9.60;;
9767;SDS011;4923;52.520;13.494;2022-08-20T11:31:17;12.70;;;11.40;;
9767;SDS011;4923;52.520;13.494;2022-08-20T11:34:05;13.23;;;11.87;;
9767;SDS011;4923;52.520;13.494;2022-08-20T11:36:52;13.53;;;12.13;;
9767;SDS011;4923;52.520;13.494;2022-08-20T11:39:39;11.20;;;10.10;;
9767;SDS011;4923;52.520;13.494;2022-08-20T11:42:26;9.47;;;8.57;;
9767;SDS011;4923;52.520;13.494;2022-08-20T11:45:13;11.30;;;8.27;;
9767;SDS011;4923;52.520;13.494;2022-08-20T11:48:00;7.77;;;7.07;;
9767;SDS011;4923;52.520;13.494;2022-08-20T11:50:50;7.80;;;7.00;;
9767;SDS011;4923;52.520;13.494;2022-08-20T11:53:37;5.67;;;5.23;;
9767;SDS011;4923;52.520;13.494;2022-08-20T11:56:24;6.30;;;5.63;;
9767;SDS011;4923;52.520;13.494;2022-08-20T11:59:11;5.67;;;5.27;;
9767;SDS011;4923;52.520;13.494;2022-08-20T12:01:57;8.33;;;5.80;;
9767;SDS011;4923;52.520;13.494;2022-08-20T12:04:45;4.63;;;4.23;;
9767;SDS011;4923;52.520;13.494;2022-08-20T12:07:34;3.97;;;3.77;;
9767;SDS011;4923;52.520;13.494;2022-08-20T12:10:20;4.57;;;4.47;;
9767;SDS011;4923;52.520;13.494;2022-08-20T12:13:10;6.13;;;5.73;;
9767;SDS011;4923;52.520;13.494;2022-08-20T12:15:57;4.37;;;4.17;;
9767;SDS011;4923;52.520;13.494;2022-08-20T12:18:45;5.90;;;5.43;;
9767;SDS011;4923;52.520;13.494;2022-08-20T12:21:32;5.03;;;4.70;;
9767;SDS011;4923;52.520;13.494;2022-08-20T12:24:21;4.63;;;4.23;;
9767;SDS011;4923;52.520;13.494;2022-08-20T12:27:08;5.53;;;5.13;;
9767;SDS011;4923;52.520;13.494;2022-08-20T12:29:57;4.90;;;4.53;;
9767;SDS011;4923;52.520;13.494;2022-08-20T12:32:45;4.87;;;4.60;;
9767;SDS011;4923;52.520;13.494;2022-08-20T12:35:32;6.90;;;4.97;;
9767;SDS011;4923;52.520;13.494;2022-08-20T12:38:19;6.87;;;6.23;;
9767;SDS011;4923;52.520;13.494;2022-08-20T12:41:08;5.70;;;5.23;;
9767;SDS011;4923;52.520;13.494;2022-08-20T12:43:55;6.70;;;6.13;;
9767;SDS011;4923;52.520;13.494;2022-08-20T12:46:42;7.77;;;5.70;;
9767;SDS011;4923;52.520;13.494;2022-08-20T12:49:29;7.27;;;6.73;;
9767;SDS011;4923;52.520;13.494;2022-08-20T12:52:16;6.80;;;5.87;;
9767;SDS011;4923;52.520;13.494;2022-08-20T12:55:05;7.17;;;6.47;;
9767;SDS011;4923;52.520;13.494;2022-08-20T12:57:55;7.10;;;6.60;;
9767;SDS011;4923;52.520;13.494;2022-08-20T13:00:45;6.83;;;6.30;;
9767;SDS011;4923;52.520;13.494;2022-08-20T13:03:32;9.23;;;6.83;;
9767;SDS011;4923;52.520;13.494;2022-08-20T13:06:21;5.93;;;5.50;;
9767;SDS011;4923;52.520;13.494;2022-08-20T13:09:08;5.97;;;5.53;;
9767;SDS011;4923;52.520;13.494;2022-08-20T13:11:55;6.13;;;5.57;;
9767;SDS011;4923;52.520;13.494;2022-08-20T13:14:43;6.40;;;5.90;;
9767;SDS011;4923;52.520;13.494;2022-08-20T13:17:30;9.60;;;6.30;;
9767;SDS011;4923;52.520;13.494;2022-08-20T13:20:17;5.77;;;5.27;;
9767;SDS011;4923;52.520;13.494;2022-08-20T13:23:09;6.33;;;5.67;;
9767;SDS011;4923;52.520;13.494;2022-08-20T13:25:56;6.50;;;5.83;;
9767;SDS011;4923;52.520;13.494;2022-08-20T13:28:43;8.20;;;6.27;;
9767;SDS011;4923;52.520;13.494;2022-08-20T13:31:31;8.47;;;6.27;;
9767;SDS011;4923;52.520;13.494;2022-08-20T13:34:18;9.00;;;5.83;;
9767;SDS011;4923;52.520;13.494;2022-08-20T13:37:09;8.33;;;6.70;;
9767;SDS011;4923;52.520;13.494;2022-08-20T13:39:57;10.37;;;7.30;;
9767;SDS011;4923;52.520;13.494;2022-08-20T13:42:44;6.70;;;6.00;;
9767;SDS011;4923;52.520;13.494;2022-08-20T13:45:31;8.80;;;7.57;;
9767;SDS011;4923;52.520;13.494;2022-08-20T13:48:20;8.00;;;7.20;;
9767;SDS011;4923;52.520;13.494;2022-08-20T13:51:07;8.20;;;7.10;;
9767;SDS011;4923;52.520;13.494;2022-08-20T13:53:54;8.70;;;7.80;;
9767;SDS011;4923;52.520;13.494;2022-08-20T13:56:41;8.47;;;7.77;;
9767;SDS011;4923;52.520;13.494;2022-08-20T13:59:28;11.43;;;8.17;;
9767;SDS011;4923;52.520;13.494;2022-08-20T14:02:15;11.20;;;8.30;;
9767;SDS011;4923;52.520;13.494;2022-08-20T14:05:05;11.13;;;8.33;;
9767;SDS011;4923;52.520;13.494;2022-08-20T14:07:52;14.90;;;8.53;;
9767;SDS011;4923;52.520;13.494;2022-08-20T14:10:39;12.90;;;9.17;;
9767;SDS011;4923;52.520;13.494;2022-08-20T14:13:27;9.63;;;8.70;;
9767;SDS011;4923;52.520;13.494;2022-08-20T14:16:14;10.50;;;9.50;;
9767;SDS011;4923;52.520;13.494;2022-08-20T14:19:01;11.00;;;9.73;;
9767;SDS011;4923;52.520;13.494;2022-08-20T14:21:50;10.40;;;9.40;;
9767;SDS011;4923;52.520;13.494;2022-08-20T14:24:37;12.60;;;9.83;;
9767;SDS011;4923;52.520;13.494;2022-08-20T14:27:24;12.03;;;9.37;;
9767;SDS011;4923;52.520;13.494;2022-08-20T14:30:12;11.47;;;10.30;;
9767;SDS011;4923;52.520;13.494;2022-08-20T14:33:01;10.90;;;9.90;;
9767;SDS011;4923;52.520;13.494;2022-08-20T14:35:48;13.10;;;9.67;;
9767;SDS011;4923;52.520;13.494;2022-08-20T14:38:36;17.80;;;10.53;;
9767;SDS011;4923;52.520;13.494;2022-08-20T14:41:25;14.40;;;10.30;;
9767;SDS011;4923;52.520;13.494;2022-08-20T14:44:12;12.37;;;10.07;;
9767;SDS011;4923;52.520;13.494;2022-08-20T14:47:08;12.37;;;10.57;;
9767;SDS011;4923;52.520;13.494;2022-08-20T14:49:57;15.27;;;10.97;;
9767;SDS011;4923;52.520;13.494;2022-08-20T14:52:48;15.83;;;11.07;;
9767;SDS011;4923;52.520;13.494;2022-08-20T14:55:36;12.30;;;10.87;;
9767;SDS011;4923;52.520;13.494;2022-08-20T14:58:23;10.90;;;9.90;;
9767;SDS011;4923;52.520;13.494;2022-08-20T15:01:11;10.97;;;9.87;;
9767;SDS011;4923;52.520;13.494;2022-08-20T15:03:58;10.87;;;9.83;;
9767;SDS011;4923;52.520;13.494;2022-08-20T15:06:45;14.33;;;10.07;;
9767;SDS011;4923;52.520;13.494;2022-08-20T15:09:33;12.07;;;10.93;;
9767;SDS011;4923;52.520;13.494;2022-08-20T15:12:22;12.70;;;10.90;;
9767;SDS011;4923;52.520;13.494;2022-08-20T15:15:10;15.90;;;9.83;;
9767;SDS011;4923;52.520;13.494;2022-08-20T15:17:59;11.27;;;10.07;;
9767;SDS011;4923;52.520;13.494;2022-08-20T15:20:46;14.43;;;10.30;;
9767;SDS011;4923;52.520;13.494;2022-08-20T15:23:33;19.17;;;10.43;;
9767;SDS011;4923;52.520;13.494;2022-08-20T15:26:20;13.60;;;9.67;;
9767;SDS011;4923;52.520;13.494;2022-08-20T15:29:09;12.07;;;10.80;;
9767;SDS011;4923;52.520;13.494;2022-08-20T15:31:56;12.73;;;11.20;;
9767;SDS011;4923;52.520;13.494;2022-08-20T15:34:42;14.10;;;11.40;;
9767;SDS011;4923;52.520;13.494;2022-08-20T15:37:30;20.57;;;11.63;;
9767;SDS011;4923;52.520;13.494;2022-08-20T15:40:17;15.10;;;12.60;;
9767;SDS011;4923;52.520;13.494;2022-08-20T15:43:06;14.87;;;12.80;;
9767;SDS011;4923;52.520;13.494;2022-08-20T15:45:54;15.07;;;12.80;;
9767;SDS011;4923;52.520;13.494;2022-08-20T15:48:43;15.90;;;11.80;;
9767;SDS011;4923;52.520;13.494;2022-08-20T15:51:32;13.93;;;12.43;;
9767;SDS011;4923;52.520;13.494;2022-08-20T15:54:23;14.77;;;13.27;;
9767;SDS011;4923;52.520;13.494;2022-08-20T15:57:13;14.67;;;12.77;;
9767;SDS011;4923;52.520;13.494;2022-08-20T16:00:09;14.77;;;12.07;;
9767;SDS011;4923;52.520;13.494;2022-08-20T16:03:09;14.60;;;13.10;;
9767;SDS011;4923;52.520;13.494;2022-08-20T16:06:14;21.00;;;14.60;;
9767;SDS011;4923;52.520;13.494;2022-08-20T16:09:10;20.10;;;13.80;;
9767;SDS011;4923;52.520;13.494;2022-08-20T16:12:17;16.60;;;14.10;;
9767;SDS011;4923;52.520;13.494;2022-08-20T16:15:11;14.77;;;12.57;;
9767;SDS011;4923;52.520;13.494;2022-08-20T16:18:03;14.90;;;13.40;;
9767;SDS011;4923;52.520;13.494;2022-08-20T16:20:55;17.50;;;14.23;;
9767;SDS011;4923;52.520;13.494;2022-08-20T16:23:41;17.07;;;14.00;;
9767;SDS011;4923;52.520;13.494;2022-08-20T16:26:42;18.40;;;13.70;;
9767;SDS011;4923;52.520;13.494;2022-08-20T16:29:44;18.10;;;13.60;;
9767;SDS011;4923;52.520;13.494;2022-08-20T16:32:36;18.07;;;13.47;;
9767;SDS011;4923;52.520;13.494;2022-08-20T16:35:27;19.97;;;14.87;;
9767;SDS011;4923;52.520;13.494;2022-08-20T16:38:19;17.10;;;14.60;;
9767;SDS011;4923;52.520;13.494;2022-08-20T16:41:13;17.60;;;13.87;;
9767;SDS011;4923;52.520;13.494;2022-08-20T16:44:08;20.30;;;15.27;;
9767;SDS011;4923;52.520;13.494;2022-08-20T16:47:00;21.53;;;14.60;;